createdAt,value
2023-05-29T00:00:50.933Z,41.00
2023-05-29T00:04:00.324Z,41.00
2023-05-29T00:07:08.553Z,41.00
2023-05-29T00:10:16.972Z,40.90
2023-05-29T00:13:25.940Z,41.00
2023-05-29T00:16:34.051Z,41.00
2023-05-29T00:19:43.290Z,40.90
2023-05-29T00:22:51.467Z,41.00
2023-05-29T00:25:59.398Z,41.00
2023-05-29T00:29:07.639Z,41.50
2023-05-29T00:32:15.949Z,41.50
2023-05-29T00:35:25.175Z,41.50
2023-05-29T00:38:33.362Z,40.90
2023-05-29T00:41:41.633Z,40.90
2023-05-29T00:44:49.792Z,40.90
2023-05-29T00:47:57.915Z,41.00
2023-05-29T00:51:07.576Z,40.90
2023-05-29T00:54:16.790Z,41.00
2023-05-29T00:57:24.803Z,40.90
2023-05-29T01:00:34.273Z,40.90
2023-05-29T01:03:42.718Z,40.90
2023-05-29T01:06:52.691Z,40.90
2023-05-29T01:10:00.798Z,40.90
2023-05-29T01:13:10.820Z,40.90
2023-05-29T01:16:22.165Z,40.90
2023-05-29T01:19:42.032Z,40.90
2023-05-29T01:23:07.467Z,40.80
2023-05-29T01:26:35.298Z,40.80
2023-05-29T01:29:44.653Z,40.90
2023-05-29T01:32:52.892Z,40.80
2023-05-29T01:36:01.015Z,40.90
2023-05-29T01:39:09.291Z,40.80
2023-05-29T01:42:18.866Z,40.80
2023-05-29T01:45:26.705Z,40.90
2023-05-29T01:48:34.662Z,40.90
2023-05-29T01:51:42.766Z,40.70
2023-05-29T01:54:50.763Z,40.80
2023-05-29T01:57:59.963Z,40.70
2023-05-29T02:01:08.126Z,40.80
2023-05-29T02:04:16.209Z,40.70
2023-05-29T02:07:24.194Z,40.70
2023-05-29T02:10:32.974Z,40.70
2023-05-29T02:13:43.255Z,40.70
2023-05-29T02:16:52.640Z,40.70
2023-05-29T02:20:00.732Z,40.70
2023-05-29T02:23:10.553Z,40.70
2023-05-29T02:26:18.646Z,40.60
2023-05-29T02:29:28.044Z,40.60
2023-05-29T02:32:36.813Z,40.60
2023-05-29T02:35:47.069Z,40.60
2023-05-29T02:38:54.899Z,40.60
2023-05-29T02:42:02.864Z,40.60
2023-05-29T02:45:12.458Z,40.60
2023-05-29T02:48:20.560Z,40.60
2023-05-29T02:51:28.541Z,40.60
2023-05-29T02:54:37.110Z,40.60
2023-05-29T02:57:45.504Z,40.60
2023-05-29T03:00:54.783Z,40.60
2023-05-29T03:04:02.902Z,40.60
2023-05-29T03:07:13.653Z,40.60
2023-05-29T03:10:21.852Z,40.60
2023-05-29T03:13:29.667Z,40.60
2023-05-29T03:16:46.758Z,40.60
2023-05-29T03:19:55.037Z,40.50
2023-05-29T03:23:03.687Z,41.20
2023-05-29T03:26:13.502Z,40.60
2023-05-29T03:29:22.610Z,40.60
2023-05-29T03:32:33.421Z,40.60
2023-05-29T03:35:42.194Z,40.60
2023-05-29T03:38:50.961Z,40.70
2023-05-29T03:42:01.231Z,40.70
2023-05-29T03:45:10.868Z,40.60
2023-05-29T03:48:23.138Z,40.70
2023-05-29T03:51:31.900Z,40.70
2023-05-29T03:54:39.850Z,40.70
2023-05-29T03:57:47.680Z,40.70
2023-05-29T04:00:56.059Z,40.70
2023-05-29T04:04:05.490Z,40.70
2023-05-29T04:07:13.559Z,40.70
2023-05-29T04:10:21.450Z,40.70
2023-05-29T04:13:29.821Z,40.70
2023-05-29T04:16:37.765Z,40.70
2023-05-29T04:19:46.986Z,40.70
2023-05-29T04:22:55.443Z,40.70
2023-05-29T04:26:03.937Z,40.70
2023-05-29T04:29:14.874Z,40.70
2023-05-29T04:32:24.013Z,40.70
2023-05-29T04:35:33.305Z,40.60
2023-05-29T04:38:46.116Z,40.60
2023-05-29T04:41:54.828Z,40.70
2023-05-29T04:45:06.218Z,40.70
2023-05-29T04:48:17.803Z,40.70
2023-05-29T04:51:29.537Z,40.70
2023-05-29T04:54:38.617Z,40.60
2023-05-29T04:57:46.837Z,40.70
2023-05-29T05:00:58.773Z,40.70
2023-05-29T05:04:09.102Z,40.70
2023-05-29T05:07:18.434Z,40.70
2023-05-29T05:10:26.365Z,40.70
2023-05-29T05:13:34.387Z,40.80
2023-05-29T05:16:42.462Z,40.80
2023-05-29T05:19:53.272Z,40.80
2023-05-29T05:23:03.551Z,40.80
2023-05-29T05:26:11.450Z,40.80
2023-05-29T05:29:19.332Z,40.80
2023-05-29T05:32:27.767Z,40.80
2023-05-29T05:35:43.196Z,40.80
2023-05-29T05:38:52.667Z,40.70
2023-05-29T05:42:00.875Z,40.80
2023-05-29T05:45:26.159Z,40.80
2023-05-29T05:48:34.216Z,40.80
2023-05-29T05:51:42.243Z,40.80
2023-05-29T05:54:51.428Z,40.80
2023-05-29T05:57:59.862Z,40.70
2023-05-29T06:01:09.281Z,40.70
2023-05-29T06:04:17.873Z,40.80
2023-05-29T06:07:25.844Z,40.70
2023-05-29T06:10:35.229Z,40.70
2023-05-29T06:13:43.107Z,40.70
2023-05-29T06:16:57.569Z,40.70
2023-05-29T06:20:11.039Z,40.70
2023-05-29T06:23:19.152Z,40.90
2023-05-29T06:26:29.264Z,40.90
2023-05-29T06:29:37.352Z,40.90
2023-05-29T06:32:45.126Z,40.80
2023-05-29T06:35:53.486Z,40.80
2023-05-29T06:39:02.341Z,40.80
2023-05-29T06:42:11.687Z,40.80
2023-05-29T06:45:23.968Z,40.80
2023-05-29T06:48:35.046Z,40.80
2023-05-29T06:51:44.205Z,40.80
2023-05-29T06:55:07.958Z,40.70
2023-05-29T06:58:17.637Z,40.70
2023-05-29T07:01:44.656Z,40.80
2023-05-29T07:04:52.981Z,40.80
2023-05-29T07:08:01.449Z,40.80
2023-05-29T07:11:10.499Z,40.80
2023-05-29T07:14:19.781Z,40.70
2023-05-29T07:17:28.092Z,40.80
2023-05-29T07:20:47.113Z,41.40
2023-05-29T07:23:58.251Z,40.80
2023-05-29T07:27:06.714Z,40.70
2023-05-29T07:30:16.658Z,40.80
2023-05-29T07:33:26.379Z,40.80
2023-05-29T07:36:37.148Z,40.70
2023-05-29T07:39:49.797Z,40.70
2023-05-29T07:43:32.840Z,40.70
2023-05-29T07:46:46.186Z,40.70
2023-05-29T07:50:16.413Z,40.70
2023-05-29T07:53:24.627Z,40.70
2023-05-29T07:56:34.843Z,40.70
2023-05-29T07:59:43.700Z,40.70
2023-05-29T08:02:53.945Z,40.70
2023-05-29T08:06:20.741Z,40.70
2023-05-29T08:09:28.883Z,40.70
2023-05-29T08:12:36.827Z,40.70
2023-05-29T08:15:45.672Z,40.70
2023-05-29T08:18:55.112Z,40.70
2023-05-29T08:22:03.018Z,40.70
2023-05-29T08:25:11.261Z,40.70
2023-05-29T08:28:19.675Z,40.70
2023-05-29T08:31:28.121Z,40.70
2023-05-29T08:34:37.437Z,40.70
2023-05-29T08:37:45.224Z,40.70
2023-05-29T08:40:53.536Z,40.70
2023-05-29T08:44:01.808Z,40.70
2023-05-29T08:47:11.273Z,40.70
2023-05-29T08:50:21.250Z,40.70
2023-05-29T08:53:29.130Z,40.70
2023-05-29T08:56:37.045Z,40.80
2023-05-29T08:59:45.670Z,40.80
2023-05-29T09:02:54.483Z,40.80
2023-05-29T09:06:04.693Z,40.80
2023-05-29T09:09:13.079Z,40.80
2023-05-29T09:12:21.200Z,40.80
2023-05-29T09:15:29.519Z,40.80
2023-05-29T09:18:37.305Z,40.80
2023-05-29T09:21:46.601Z,40.80
2023-05-29T09:24:54.564Z,40.80
2023-05-29T09:28:03.716Z,40.80
2023-05-29T09:31:16.374Z,40.80
2023-05-29T09:34:27.589Z,40.80
2023-05-29T09:37:37.538Z,40.90
2023-05-29T09:40:46.628Z,40.90
2023-05-29T09:43:55.708Z,40.90
2023-05-29T09:47:03.585Z,40.90
2023-05-29T09:50:19.846Z,41.00
2023-05-29T09:53:30.503Z,41.00
2023-05-29T09:56:39.104Z,41.00
2023-05-29T09:59:49.793Z,41.00
2023-05-29T10:02:58.548Z,41.00
2023-05-29T10:06:06.931Z,41.00
2023-05-29T10:09:17.268Z,41.60
2023-05-29T10:12:25.573Z,41.10
2023-05-29T10:15:33.787Z,41.70
2023-05-29T10:18:44.265Z,41.10
2023-05-29T10:21:53.007Z,41.10
2023-05-29T10:25:02.407Z,41.10
2023-05-29T10:28:10.343Z,41.10
2023-05-29T10:31:20.766Z,41.00
2023-05-29T10:34:32.811Z,41.00
2023-05-29T10:37:43.588Z,40.90
2023-05-29T10:40:52.777Z,40.80
2023-05-29T10:44:00.933Z,40.80
2023-05-29T10:47:10.016Z,40.80
2023-05-29T10:50:18.073Z,40.60
2023-05-29T10:53:28.029Z,40.70
2023-05-29T10:56:37.528Z,40.50
2023-05-29T10:59:47.304Z,40.50
2023-05-29T11:02:55.718Z,40.40
2023-05-29T11:06:06.930Z,40.40
2023-05-29T11:09:28.934Z,40.30
2023-05-29T11:12:38.145Z,40.30
2023-05-29T11:15:46.247Z,40.30
2023-05-29T11:18:55.172Z,40.10
2023-05-29T11:22:08.154Z,40.10
2023-05-29T11:25:16.304Z,40.10
2023-05-29T11:28:25.783Z,40.10
2023-05-29T11:31:35.902Z,40.00
2023-05-29T11:34:43.971Z,40.00
2023-05-29T11:37:52.271Z,40.00
2023-05-29T11:41:00.446Z,39.90
2023-05-29T11:44:09.981Z,39.90
2023-05-29T11:47:19.972Z,39.80
2023-05-29T11:50:28.479Z,39.80
2023-05-29T11:53:36.398Z,39.80
2023-05-29T11:56:45.076Z,39.80
2023-05-29T11:59:59.786Z,39.80
2023-05-29T12:03:08.326Z,39.80
2023-05-29T12:06:16.409Z,39.80
2023-05-29T12:09:28.465Z,39.80
2023-05-29T12:12:38.030Z,39.80
2023-05-29T12:15:47.675Z,39.80
2023-05-29T12:18:56.182Z,39.70
2023-05-29T12:22:04.158Z,39.70
2023-05-29T12:25:12.976Z,39.70
2023-05-29T12:28:21.899Z,40.40
2023-05-29T12:31:32.181Z,39.70
2023-05-29T12:34:41.797Z,39.70
2023-05-29T12:37:50.576Z,39.70
2023-05-29T12:40:58.646Z,39.70
2023-05-29T12:44:06.873Z,39.70
2023-05-29T12:47:17.671Z,39.80
2023-05-29T12:50:26.838Z,39.80
2023-05-29T12:53:34.730Z,39.70
2023-05-29T12:56:42.674Z,39.80
2023-05-29T12:59:50.816Z,39.80
2023-05-29T13:03:00.752Z,39.80
2023-05-29T13:06:09.168Z,39.80
2023-05-29T13:09:17.349Z,39.90
2023-05-29T13:12:25.394Z,39.70
2023-05-29T13:15:34.733Z,39.70
2023-05-29T13:18:44.183Z,39.70
2023-05-29T13:21:52.759Z,39.70
2023-05-29T13:25:00.948Z,39.70
2023-05-29T13:28:08.672Z,39.70
2023-05-29T13:31:16.597Z,39.70
2023-05-29T13:34:29.620Z,39.70
2023-05-29T13:37:37.893Z,39.80
2023-05-29T13:40:45.927Z,40.40
2023-05-29T13:43:53.947Z,39.80
2023-05-29T13:47:01.877Z,39.70
2023-05-29T13:50:11.773Z,39.70
2023-05-29T13:53:19.761Z,39.70
2023-05-29T13:56:28.027Z,39.70
2023-05-29T13:59:35.954Z,39.70
2023-05-29T14:02:44.284Z,39.70
2023-05-29T14:05:54.341Z,39.80
2023-05-29T14:09:02.810Z,39.80
2023-05-29T14:12:11.193Z,40.50
2023-05-29T14:15:19.229Z,39.90
2023-05-29T14:18:27.116Z,39.90
2023-05-29T14:21:36.809Z,39.80
2023-05-29T14:24:44.848Z,39.80
2023-05-29T14:27:52.952Z,39.70
2023-05-29T14:31:00.963Z,39.70
2023-05-29T14:34:08.736Z,39.70
2023-05-29T14:37:18.087Z,39.70
2023-05-29T14:40:26.289Z,39.70
2023-05-29T14:43:34.263Z,39.60
2023-05-29T14:46:42.179Z,39.60
2023-05-29T14:49:50.131Z,39.50
2023-05-29T14:52:59.302Z,39.50
2023-05-29T14:56:07.885Z,39.50
2023-05-29T14:59:15.936Z,39.50
2023-05-29T15:02:23.843Z,39.50
2023-05-29T15:05:32.052Z,39.40
2023-05-29T15:08:43.245Z,39.50
2023-05-29T15:11:51.366Z,39.40
2023-05-29T15:14:59.224Z,39.50
2023-05-29T15:18:07.189Z,39.50
2023-05-29T15:21:15.122Z,39.50
2023-05-29T15:24:24.379Z,39.50
2023-05-29T15:27:33.599Z,39.40
2023-05-29T15:30:41.451Z,39.30
2023-05-29T15:33:49.580Z,39.30
2023-05-29T15:36:57.376Z,39.30
2023-05-29T15:40:08.487Z,39.30
2023-05-29T15:43:16.535Z,39.30
2023-05-29T15:46:24.387Z,39.30
2023-05-29T15:49:32.311Z,39.30
2023-05-29T15:52:53.572Z,39.90
2023-05-29T15:56:04.850Z,39.40
2023-05-29T15:59:13.216Z,39.40
2023-05-29T16:02:21.418Z,39.30
2023-05-29T16:05:29.682Z,39.30
2023-05-29T16:08:37.544Z,39.30
2023-05-29T16:11:46.984Z,39.30
2023-05-29T16:14:55.121Z,39.30
2023-05-29T16:18:03.302Z,39.30
2023-05-29T16:21:11.362Z,39.30
2023-05-29T16:24:19.211Z,39.40
2023-05-29T16:27:28.349Z,39.40
2023-05-29T16:30:36.281Z,39.50
2023-05-29T16:33:44.160Z,39.50
2023-05-29T16:36:52.297Z,39.40
2023-05-29T16:40:00.410Z,39.40
2023-05-29T16:43:10.038Z,39.40
2023-05-29T16:46:18.223Z,39.40
2023-05-29T16:49:26.932Z,39.50
2023-05-29T16:52:35.382Z,39.50
2023-05-29T16:55:43.460Z,39.40
2023-05-29T16:58:52.925Z,39.50
2023-05-29T17:02:01.192Z,39.60
2023-05-29T17:05:09.734Z,39.50
2023-05-29T17:08:17.724Z,39.50
2023-05-29T17:11:26.378Z,39.50
2023-05-29T17:14:35.852Z,39.40
2023-05-29T17:17:43.779Z,39.30
2023-05-29T17:20:52.085Z,39.30
2023-05-29T17:24:00.074Z,39.20
2023-05-29T17:27:09.164Z,39.30
2023-05-29T17:30:18.754Z,39.30
2023-05-29T17:33:26.628Z,39.20
2023-05-29T17:36:34.617Z,39.30
2023-05-29T17:39:42.479Z,39.20
2023-05-29T17:42:50.502Z,39.20
2023-05-29T17:45:59.988Z,39.20
2023-05-29T17:49:08.148Z,39.20
2023-05-29T17:52:16.350Z,39.20
2023-05-29T17:55:25.179Z,39.20
2023-05-29T17:58:33.028Z,39.20
2023-05-29T18:01:42.426Z,39.20
2023-05-29T18:04:52.362Z,39.20
2023-05-29T18:08:00.191Z,39.10
2023-05-29T18:11:08.269Z,39.10
2023-05-29T18:14:16.059Z,39.20
2023-05-29T18:17:25.631Z,39.20
2023-05-29T18:20:33.973Z,39.30
2023-05-29T18:23:44.603Z,39.30
2023-05-29T18:26:52.500Z,39.30
2023-05-29T18:30:00.373Z,39.30
2023-05-29T18:33:10.043Z,39.30
2023-05-29T18:36:18.350Z,39.30
2023-05-29T18:39:26.253Z,39.30
2023-05-29T18:42:34.238Z,39.20
2023-05-29T18:45:42.386Z,39.20
2023-05-29T18:48:51.720Z,39.20
2023-05-29T18:51:59.651Z,39.10
2023-05-29T18:55:08.059Z,39.20
2023-05-29T18:58:16.020Z,39.20
2023-05-29T19:01:31.695Z,39.10
2023-05-29T19:04:42.192Z,39.10
2023-05-29T19:07:50.143Z,39.10
2023-05-29T19:10:58.379Z,39.10
2023-05-29T19:14:06.802Z,39.20
2023-05-29T19:17:16.327Z,39.10
2023-05-29T19:20:25.649Z,39.70
2023-05-29T19:23:33.503Z,39.10
2023-05-29T19:26:42.770Z,39.10
2023-05-29T19:29:50.652Z,39.10
2023-05-29T19:32:59.027Z,39.70
2023-05-29T19:36:09.088Z,39.10
2023-05-29T19:39:19.046Z,39.10
2023-05-29T19:42:28.043Z,39.10
2023-05-29T19:45:36.483Z,39.00
2023-05-29T19:48:44.713Z,39.10
2023-05-29T19:51:59.025Z,39.00
2023-05-29T19:55:08.115Z,39.10
2023-05-29T19:58:16.471Z,39.10
2023-05-29T20:01:24.758Z,39.10
2023-05-29T20:04:34.943Z,39.70
2023-05-29T20:07:44.202Z,39.10
2023-05-29T20:10:58.352Z,39.10
2023-05-29T20:14:08.415Z,39.10
2023-05-29T20:17:16.779Z,39.10
2023-05-29T20:20:25.481Z,39.10
2023-05-29T20:23:34.817Z,39.10
2023-05-29T20:26:42.871Z,39.10
2023-05-29T20:29:50.997Z,39.10
2023-05-29T20:32:59.095Z,39.10
2023-05-29T20:36:08.164Z,39.10
2023-05-29T20:39:19.835Z,39.10
2023-05-29T20:42:28.637Z,39.10
2023-05-29T20:45:37.626Z,39.70
2023-05-29T20:48:46.343Z,39.10
2023-05-29T20:51:54.525Z,39.10
2023-05-29T20:55:04.512Z,39.80
2023-05-29T20:58:12.434Z,39.20
2023-05-29T21:01:20.418Z,39.10
2023-05-29T21:04:28.412Z,39.20
2023-05-29T21:07:36.632Z,39.20
2023-05-29T21:10:46.944Z,39.20
2023-05-29T21:13:54.862Z,39.20
2023-05-29T21:17:02.799Z,39.20
2023-05-29T21:20:12.487Z,39.20
2023-05-29T21:23:20.535Z,39.20
2023-05-29T21:26:29.684Z,39.30
2023-05-29T21:29:37.858Z,39.30
2023-05-29T21:32:45.854Z,39.30
2023-05-29T21:35:53.799Z,39.30
2023-05-29T21:39:01.730Z,39.30
2023-05-29T21:42:11.565Z,39.30
2023-05-29T21:45:19.491Z,39.30
2023-05-29T21:48:27.945Z,39.30
2023-05-29T21:51:36.723Z,39.40
2023-05-29T21:54:44.664Z,39.40
2023-05-29T21:57:53.999Z,39.40
2023-05-29T22:01:02.253Z,39.40
2023-05-29T22:04:10.086Z,39.40
2023-05-29T22:07:18.071Z,39.40
2023-05-29T22:10:26.138Z,39.40
2023-05-29T22:13:36.233Z,39.40
2023-05-29T22:16:46.272Z,39.40
2023-05-29T22:19:54.579Z,39.50
2023-05-29T22:23:16.180Z,39.50
2023-05-29T22:26:25.962Z,39.50
2023-05-29T22:29:35.492Z,39.50
2023-05-29T22:32:43.525Z,39.50
2023-05-29T22:35:51.731Z,39.50
2023-05-29T22:38:59.786Z,39.50
2023-05-29T22:42:08.780Z,39.60
2023-05-29T22:45:18.142Z,39.50
2023-05-29T22:48:26.018Z,39.60
2023-05-29T22:51:34.679Z,39.60
2023-05-29T22:54:42.523Z,39.60
2023-05-29T22:57:51.647Z,39.60
2023-05-29T23:01:01.622Z,39.70
2023-05-29T23:04:09.446Z,39.70
2023-05-29T23:07:17.637Z,39.70
2023-05-29T23:10:25.527Z,39.80
2023-05-29T23:13:33.583Z,39.70
2023-05-29T23:16:43.305Z,39.70
2023-05-29T23:19:51.407Z,39.70
2023-05-29T23:22:59.103Z,39.70
2023-05-29T23:26:07.391Z,39.70
2023-05-29T23:29:15.480Z,39.80
2023-05-29T23:32:24.919Z,39.70
2023-05-29T23:35:33.871Z,39.70
2023-05-29T23:38:41.915Z,39.80
2023-05-29T23:41:49.803Z,39.80
2023-05-29T23:44:57.834Z,39.80
2023-05-29T23:48:07.473Z,39.80
2023-05-29T23:51:15.711Z,39.80
2023-05-29T23:54:23.830Z,39.80
2023-05-29T23:57:31.671Z,39.80
